Time;durP1;ratioP1;P1;durP2;ratioP2;P2;SDS_P1;SDS_P2;PMS_P1;PMS_P2;Temp;Humidity;BMP_temperature;BMP_pressure;BME280_temperature;BME280_humidity;BME280_pressure;Samples;Min_cycle;Max_cycle;Signal;HPM_P1;HPM_P2
2022/01/01 00:01:27;;;;;;;49.05;33.97;;;;;;;;;;5029653;28;20041;-74
2022/01/01 00:03:53;;;;;;;52.92;37.55;;;;;;;;;;5024141;28;20034;-74
2022/01/01 00:06:19;;;;;;;61.90;42.63;;;;;;;;;;5030645;28;20033;-74
2022/01/01 00:08:45;;;;;;;55.25;38.22;;;;;;;;;;5030450;28;20530;-74
2022/01/01 00:11:12;;;;;;;41.75;28.73;;;;;;;;;;5030187;28;20038;-74
2022/01/01 00:13:38;;;;;;;45.00;29.10;;;;;;;;;;5030180;28;20648;-74
2022/01/01 00:16:09;;;;;;;38.63;28.83;;;;;;;;;;5030511;28;20041;-74
2022/01/01 00:18:35;;;;;;;35.38;24.15;;;;;;;;;;5022681;28;20526;-74
2022/01/01 00:21:01;;;;;;;28.70;19.02;;;;;;;;;;5030728;28;20033;-74
2022/01/01 00:23:27;;;;;;;32.42;20.98;;;;;;;;;;5028861;28;20116;-74
2022/01/01 00:25:53;;;;;;;33.72;22.17;;;;;;;;;;5030630;28;20029;-74
2022/01/01 00:28:19;;;;;;;36.28;21.27;;;;;;;;;;5029416;28;20056;-75
2022/01/01 00:30:45;;;;;;;29.38;19.05;;;;;;;;;;5030472;28;20029;-74
2022/01/01 00:33:11;;;;;;;29.88;16.92;;;;;;;;;;5025169;28;20046;-74
2022/01/01 00:35:38;;;;;;;26.17;17.38;;;;;;;;;;5023824;28;20037;-74
2022/01/01 00:38:04;;;;;;;27.45;15.93;;;;;;;;;;5029990;28;20462;-74
2022/01/01 00:40:30;;;;;;;37.60;22.67;;;;;;;;;;5019235;28;20068;-74
2022/01/01 00:42:56;;;;;;;13.80;6.43;;;;;;;;;;5030338;28;20056;-74
2022/01/01 00:45:23;;;;;;;12.77;6.00;;;;;;;;;;5022038;28;20045;-74
2022/01/01 00:47:49;;;;;;;13.45;6.18;;;;;;;;;;5029690;28;20114;-74
2022/01/01 00:50:15;;;;;;;14.85;7.82;;;;;;;;;;5029305;28;20048;-74
2022/01/01 00:52:44;;;;;;;19.52;11.02;;;;;;;;;;5029976;28;20041;-74
2022/01/01 00:55:10;;;;;;;25.95;15.63;;;;;;;;;;5026384;28;20121;-74
2022/01/01 00:57:36;;;;;;;18.63;10.00;;;;;;;;;;5020550;28;20037;-74
2022/01/01 01:00:03;;;;;;;23.45;13.98;;;;;;;;;;5029928;28;20033;-74
2022/01/01 01:02:29;;;;;;;23.15;13.95;;;;;;;;;;5029136;28;20373;-74
2022/01/01 01:04:55;;;;;;;24.13;14.18;;;;;;;;;;5025579;28;20108;-74
2022/01/01 01:07:21;;;;;;;25.30;15.50;;;;;;;;;;5029773;28;20120;-74
2022/01/01 01:09:47;;;;;;;24.30;15.85;;;;;;;;;;5026096;28;20034;-74
2022/01/01 01:12:13;;;;;;;20.17;13.38;;;;;;;;;;5018404;28;20033;-74
2022/01/01 01:14:41;;;;;;;21.17;13.85;;;;;;;;;;5028881;28;20499;-74
2022/01/01 01:17:08;;;;;;;23.13;15.02;;;;;;;;;;5027291;28;20029;-74
2022/01/01 01:19:35;;;;;;;19.88;12.63;;;;;;;;;;5026024;28;20053;-74
2022/01/01 01:22:01;;;;;;;17.98;8.50;;;;;;;;;;5026159;28;20084;-74
2022/01/01 01:24:27;;;;;;;18.25;8.43;;;;;;;;;;5024442;28;20025;-74
2022/01/01 01:26:54;;;;;;;12.40;6.78;;;;;;;;;;5026039;28;20057;-74
2022/01/01 01:29:20;;;;;;;18.63;9.68;;;;;;;;;;5022938;28;20060;-74
2022/01/01 01:31:47;;;;;;;17.60;10.55;;;;;;;;;;5026111;28;20037;-74
2022/01/01 01:34:13;;;;;;;12.80;7.03;;;;;;;;;;5027148;28;20064;-74
2022/01/01 01:36:39;;;;;;;13.95;8.55;;;;;;;;;;5024273;28;20121;-74
2022/01/01 01:39:05;;;;;;;18.23;10.57;;;;;;;;;;5028005;28;20675;-74
2022/01/01 01:41:31;;;;;;;21.67;11.05;;;;;;;;;;5028410;28;20029;-74
2022/01/01 01:44:03;;;;;;;14.52;9.20;;;;;;;;;;5026645;28;20037;-74
2022/01/01 01:46:29;;;;;;;13.95;7.47;;;;;;;;;;5027980;28;20025;-74
2022/01/01 01:48:55;;;;;;;16.10;8.05;;;;;;;;;;5019437;28;20040;-75
2022/01/01 01:51:21;;;;;;;16.40;8.75;;;;;;;;;;5019028;28;20033;-74
2022/01/01 01:53:48;;;;;;;17.38;9.13;;;;;;;;;;5020265;28;20419;-75
2022/01/01 01:56:14;;;;;;;16.10;10.18;;;;;;;;;;5025306;28;20421;-74
2022/01/01 01:58:40;;;;;;;17.75;10.27;;;;;;;;;;5026811;28;20040;-74
2022/01/01 02:01:20;;;;;;;16.55;9.65;;;;;;;;;;5022158;28;20033;-74
2022/01/01 02:03:46;;;;;;;20.65;10.98;;;;;;;;;;5027164;28;20045;-74
2022/01/01 02:06:13;;;;;;;19.75;10.20;;;;;;;;;;5024491;28;20621;-74
2022/01/01 02:08:39;;;;;;;18.63;8.52;;;;;;;;;;5026681;28;20037;-74
2022/01/01 02:11:05;;;;;;;20.33;11.93;;;;;;;;;;5024554;28;20059;-74
2022/01/01 02:13:47;;;;;;;20.15;12.00;;;;;;;;;;5022973;28;20057;-74
2022/01/01 02:16:31;;;;;;;18.42;11.27;;;;;;;;;;5015816;28;20025;-74
2022/01/01 02:18:57;;;;;;;17.23;9.13;;;;;;;;;;5025947;28;20114;-74
2022/01/01 02:21:24;;;;;;;15.32;8.32;;;;;;;;;;5025337;28;20033;-74
2022/01/01 02:23:57;;;;;;;15.55;7.80;;;;;;;;;;5021217;28;20061;-74
2022/01/01 02:26:27;;;;;;;15.25;7.90;;;;;;;;;;5027982;28;20388;-74
2022/01/01 02:28:53;;;;;;;13.00;7.72;;;;;;;;;;5021922;28;20108;-74
2022/01/01 02:31:19;;;;;;;13.07;7.03;;;;;;;;;;5023293;28;20040;-74
2022/01/01 02:33:45;;;;;;;17.27;8.18;;;;;;;;;;5024076;28;20037;-74
2022/01/01 02:36:11;;;;;;;15.60;7.38;;;;;;;;;;5026249;28;20690;-74
2022/01/01 02:38:37;;;;;;;14.55;8.00;;;;;;;;;;5025218;28;20030;-74
2022/01/01 02:41:04;;;;;;;15.27;7.93;;;;;;;;;;5028212;28;20021;-74
2022/01/01 02:43:31;;;;;;;14.90;7.93;;;;;;;;;;5016800;28;20664;-74
2022/01/01 02:45:58;;;;;;;15.75;8.38;;;;;;;;;;5024700;28;20105;-74
2022/01/01 02:48:24;;;;;;;12.25;7.07;;;;;;;;;;5022420;28;20042;-74
2022/01/01 02:50:53;;;;;;;14.98;7.18;;;;;;;;;;5025110;28;20040;-74
2022/01/01 02:53:19;;;;;;;12.45;6.95;;;;;;;;;;5022560;28;20110;-74
2022/01/01 02:55:45;;;;;;;15.30;6.80;;;;;;;;;;5023981;28;20120;-74
2022/01/01 02:58:12;;;;;;;17.60;9.13;;;;;;;;;;5021543;28;20080;-74
2022/01/01 03:00:39;;;;;;;14.75;7.82;;;;;;;;;;5022379;28;20032;-74
2022/01/01 03:03:05;;;;;;;15.27;8.18;;;;;;;;;;5027821;28;20095;-74
2022/01/01 03:05:31;;;;;;;16.30;9.10;;;;;;;;;;5022374;28;20126;-74
2022/01/01 03:07:58;;;;;;;14.68;7.90;;;;;;;;;;5027866;28;20037;-74
2022/01/01 03:10:24;;;;;;;13.77;7.40;;;;;;;;;;5022356;28;20030;-74
2022/01/01 03:12:50;;;;;;;15.15;7.93;;;;;;;;;;5024861;28;20103;-74
2022/01/01 03:15:16;;;;;;;13.32;7.30;;;;;;;;;;5029114;28;20049;-74
2022/01/01 03:17:42;;;;;;;14.50;7.82;;;;;;;;;;5029570;28;20057;-74
2022/01/01 03:20:08;;;;;;;12.70;7.85;;;;;;;;;;5027228;28;20057;-74
2022/01/01 03:22:34;;;;;;;12.77;6.80;;;;;;;;;;5020968;28;20441;-74
2022/01/01 03:25:00;;;;;;;17.33;8.00;;;;;;;;;;5026316;28;20104;-74
2022/01/01 03:27:26;;;;;;;16.88;7.88;;;;;;;;;;5031227;28;20101;-74
2022/01/01 03:29:52;;;;;;;15.43;8.32;;;;;;;;;;5023441;28;20025;-74
2022/01/01 03:32:18;;;;;;;16.83;9.02;;;;;;;;;;5030110;28;20087;-74
2022/01/01 03:34:44;;;;;;;12.85;7.75;;;;;;;;;;5029749;28;20031;-74
2022/01/01 03:37:10;;;;;;;14.93;7.85;;;;;;;;;;5026443;28;20367;-74
2022/01/01 03:39:36;;;;;;;14.77;8.57;;;;;;;;;;5026094;28;20033;-74
2022/01/01 03:42:03;;;;;;;15.32;7.25;;;;;;;;;;5029299;28;20030;-74
2022/01/01 03:44:29;;;;;;;15.23;8.68;;;;;;;;;;5027283;28;20036;-74
2022/01/01 03:47:03;;;;;;;14.40;8.80;;;;;;;;;;5027059;28;20364;-74
2022/01/01 03:49:29;;;;;;;15.30;8.50;;;;;;;;;;5027808;28;20029;-74
2022/01/01 03:51:58;;;;;;;15.43;7.40;;;;;;;;;;5028929;28;20033;-74
2022/01/01 03:54:24;;;;;;;14.32;8.73;;;;;;;;;;5023534;28;20113;-74
2022/01/01 03:56:50;;;;;;;13.63;8.30;;;;;;;;;;5025101;28;20105;-74
2022/01/01 03:59:16;;;;;;;16.13;9.63;;;;;;;;;;5022918;28;20388;-74
2022/01/01 04:01:42;;;;;;;16.30;10.10;;;;;;;;;;5029549;28;20040;-74
2022/01/01 04:04:08;;;;;;;20.00;13.60;;;;;;;;;;5030627;28;20034;-74
2022/01/01 04:06:34;;;;;;;19.15;11.55;;;;;;;;;;5024289;28;20077;-74
2022/01/01 04:09:00;;;;;;;17.05;11.50;;;;;;;;;;5027890;28;20049;-74
2022/01/01 04:11:26;;;;;;;15.65;9.38;;;;;;;;;;5027027;28;20070;-74
2022/01/01 04:13:52;;;;;;;18.00;10.93;;;;;;;;;;5023729;28;20045;-74
2022/01/01 04:16:19;;;;;;;16.58;8.70;;;;;;;;;;5026706;28;20044;-74
2022/01/01 04:18:45;;;;;;;15.73;10.07;;;;;;;;;;5024408;28;20616;-74
2022/01/01 04:21:12;;;;;;;21.48;12.98;;;;;;;;;;5024665;28;20072;-74
2022/01/01 04:23:41;;;;;;;23.45;14.23;;;;;;;;;;5023875;28;20049;-74
2022/01/01 04:26:08;;;;;;;20.05;12.98;;;;;;;;;;5023250;28;20069;-74
2022/01/01 04:28:34;;;;;;;19.20;12.18;;;;;;;;;;5027758;28;20432;-74
2022/01/01 04:31:01;;;;;;;20.00;12.85;;;;;;;;;;5024048;28;20109;-74
2022/01/01 04:33:27;;;;;;;21.02;12.23;;;;;;;;;;5024410;28;20140;-74
2022/01/01 04:35:53;;;;;;;23.15;12.00;;;;;;;;;;5022004;28;20037;-74
2022/01/01 04:38:42;;;;;;;16.45;10.02;;;;;;;;;;5019177;28;20022;-74
2022/01/01 04:41:06;;;;;;;16.70;9.10;;;;;;;;;;5027844;28;20042;-74
2022/01/01 04:43:32;;;;;;;15.48;9.02;;;;;;;;;;5026289;28;20053;-74
2022/01/01 04:45:58;;;;;;;14.40;9.13;;;;;;;;;;5026657;28;20068;-74
2022/01/01 04:48:24;;;;;;;16.88;8.07;;;;;;;;;;5029163;28;20029;-74
2022/01/01 04:50:50;;;;;;;13.95;7.88;;;;;;;;;;5026053;28;20033;-74
2022/01/01 04:53:18;;;;;;;13.38;7.32;;;;;;;;;;5027695;28;20067;-74
2022/01/01 04:55:47;;;;;;;18.92;9.43;;;;;;;;;;5025290;28;20025;-74
2022/01/01 04:58:13;;;;;;;14.18;7.30;;;;;;;;;;5022477;28;20034;-74
2022/01/01 05:00:39;;;;;;;17.58;9.27;;;;;;;;;;5025878;28;20036;-74
2022/01/01 05:03:05;;;;;;;15.35;9.65;;;;;;;;;;5024447;28;20026;-74
2022/01/01 05:05:31;;;;;;;17.48;9.40;;;;;;;;;;5024855;28;20531;-74
2022/01/01 05:07:57;;;;;;;14.77;8.88;;;;;;;;;;5027651;28;20099;-74
2022/01/01 05:10:24;;;;;;;16.30;8.90;;;;;;;;;;5018832;28;20037;-74
2022/01/01 05:12:50;;;;;;;17.10;11.05;;;;;;;;;;5026232;28;21547;-74
2022/01/01 05:15:17;;;;;;;18.17;10.85;;;;;;;;;;5021217;28;20049;-74
2022/01/01 05:17:43;;;;;;;16.60;9.73;;;;;;;;;;5028080;28;20028;-74
2022/01/01 05:20:09;;;;;;;23.13;12.55;;;;;;;;;;5027354;28;20113;-74
2022/01/01 05:22:35;;;;;;;19.50;10.88;;;;;;;;;;5027661;28;20427;-74
2022/01/01 05:25:01;;;;;;;16.65;9.30;;;;;;;;;;5027170;28;20048;-74
2022/01/01 05:27:28;;;;;;;16.48;9.15;;;;;;;;;;5026462;28;20036;-74
2022/01/01 05:29:54;;;;;;;19.85;11.82;;;;;;;;;;5028564;28;20029;-74
2022/01/01 05:32:20;;;;;;;19.65;10.18;;;;;;;;;;5028093;28;20029;-74
2022/01/01 05:34:46;;;;;;;16.02;9.05;;;;;;;;;;5023867;28;20037;-74
2022/01/01 05:37:12;;;;;;;19.70;10.55;;;;;;;;;;5025881;28;20030;-74
2022/01/01 05:39:38;;;;;;;18.83;10.30;;;;;;;;;;5028267;28;20037;-74
2022/01/01 05:42:04;;;;;;;20.80;12.95;;;;;;;;;;5025291;28;20033;-74
2022/01/01 05:44:30;;;;;;;22.48;13.63;;;;;;;;;;5024373;28;20021;-74
2022/01/01 05:46:56;;;;;;;23.08;13.25;;;;;;;;;;5028817;28;20025;-74
2022/01/01 05:49:22;;;;;;;19.23;10.85;;;;;;;;;;5024121;28;20033;-74
2022/01/01 05:51:48;;;;;;;18.75;11.02;;;;;;;;;;5026286;28;20478;-74
2022/01/01 05:54:15;;;;;;;16.65;9.45;;;;;;;;;;5021751;28;20048;-74
2022/01/01 05:56:41;;;;;;;17.52;9.60;;;;;;;;;;5027137;28;20036;-74
2022/01/01 05:59:07;;;;;;;18.20;10.68;;;;;;;;;;5024682;28;20037;-74
2022/01/01 06:01:33;;;;;;;19.25;9.60;;;;;;;;;;5019101;28;20038;-74
2022/01/01 06:03:59;;;;;;;24.27;12.68;;;;;;;;;;5023608;28;20033;-74
2022/01/01 06:06:25;;;;;;;16.75;10.07;;;;;;;;;;5022774;28;20033;-74
2022/01/01 06:08:51;;;;;;;19.67;10.90;;;;;;;;;;5025668;28;20112;-74
2022/01/01 06:11:17;;;;;;;22.27;9.73;;;;;;;;;;5022040;28;20061;-74
2022/01/01 06:13:43;;;;;;;17.83;10.38;;;;;;;;;;5026438;28;20552;-74
2022/01/01 06:16:09;;;;;;;20.80;12.30;;;;;;;;;;5024538;28;20108;-74
2022/01/01 06:18:35;;;;;;;23.15;12.68;;;;;;;;;;5025337;28;20018;-74
2022/01/01 06:21:03;;;;;;;25.15;13.32;;;;;;;;;;5031335;28;21014;-74
2022/01/01 06:23:29;;;;;;;21.75;11.80;;;;;;;;;;5033224;28;20104;-74
2022/01/01 06:25:55;;;;;;;20.70;10.82;;;;;;;;;;5028431;28;20863;-74
2022/01/01 06:28:21;;;;;;;20.55;12.95;;;;;;;;;;5031058;28;20037;-74
2022/01/01 06:30:47;;;;;;;22.05;13.35;;;;;;;;;;5028423;28;20033;-74
2022/01/01 06:33:14;;;;;;;20.48;11.75;;;;;;;;;;5038420;28;20789;-74
2022/01/01 06:35:41;;;;;;;22.95;12.93;;;;;;;;;;5035532;28;20371;-74
2022/01/01 06:38:07;;;;;;;19.95;11.32;;;;;;;;;;5032420;28;20087;-74
2022/01/01 06:40:33;;;;;;;23.23;12.20;;;;;;;;;;5031560;28;20030;-74
2022/01/01 06:42:59;;;;;;;23.02;12.23;;;;;;;;;;5034071;28;20075;-74
2022/01/01 06:45:25;;;;;;;23.70;12.15;;;;;;;;;;5040929;28;20048;-74
2022/01/01 06:47:51;;;;;;;19.55;11.05;;;;;;;;;;5034874;28;20033;-74
2022/01/01 06:50:17;;;;;;;20.23;11.15;;;;;;;;;;5038674;28;20443;-74
2022/01/01 06:52:46;;;;;;;20.80;11.80;;;;;;;;;;5034412;28;20353;-74
2022/01/01 06:55:13;;;;;;;19.45;10.38;;;;;;;;;;5040301;28;20037;-74
2022/01/01 06:57:40;;;;;;;20.52;10.18;;;;;;;;;;5034293;28;20057;-74
2022/01/01 07:00:06;;;;;;;22.52;12.02;;;;;;;;;;5035400;28;20039;-74
2022/01/01 07:02:37;;;;;;;16.73;10.50;;;;;;;;;;5034680;28;20369;-74
2022/01/01 07:05:03;;;;;;;20.33;12.40;;;;;;;;;;5032471;28;20192;-74
2022/01/01 07:07:29;;;;;;;19.88;10.52;;;;;;;;;;5035739;28;20055;-74
2022/01/01 07:09:55;;;;;;;19.58;10.73;;;;;;;;;;5038492;28;20033;-74
2022/01/01 07:12:21;;;;;;;21.42;10.75;;;;;;;;;;5034271;28;20030;-74
2022/01/01 07:14:47;;;;;;;18.38;9.60;;;;;;;;;;5039758;28;20807;-74
2022/01/01 07:17:13;;;;;;;16.95;10.32;;;;;;;;;;5037502;28;20040;-74
2022/01/01 07:19:39;;;;;;;17.50;11.75;;;;;;;;;;5038178;28;20060;-74
2022/01/01 07:22:05;;;;;;;20.13;11.40;;;;;;;;;;5027243;28;20091;-74
2022/01/01 07:24:31;;;;;;;18.92;11.70;;;;;;;;;;5026676;28;20494;-74
2022/01/01 07:26:57;;;;;;;19.15;11.70;;;;;;;;;;5035970;28;20051;-74
2022/01/01 07:29:23;;;;;;;24.85;13.15;;;;;;;;;;5036221;28;20116;-74
2022/01/01 07:31:53;;;;;;;21.58;14.30;;;;;;;;;;5032126;28;20483;-74
2022/01/01 07:34:19;;;;;;;23.83;14.35;;;;;;;;;;5036235;28;20040;-74
2022/01/01 07:36:45;;;;;;;21.55;13.27;;;;;;;;;;5027686;28;20740;-74
2022/01/01 07:39:11;;;;;;;20.75;13.23;;;;;;;;;;5030249;28;20125;-74
2022/01/01 07:41:37;;;;;;;20.90;13.15;;;;;;;;;;5032754;28;20109;-74
2022/01/01 07:44:03;;;;;;;22.70;12.65;;;;;;;;;;5028862;28;20111;-74
2022/01/01 07:46:29;;;;;;;18.80;12.35;;;;;;;;;;5030200;28;20112;-74
2022/01/01 07:48:56;;;;;;;21.50;13.27;;;;;;;;;;5037576;28;20117;-75
2022/01/01 07:51:22;;;;;;;39.38;20.27;;;;;;;;;;5035664;28;20049;-74
2022/01/01 07:53:48;;;;;;;28.35;16.60;;;;;;;;;;5029509;28;20044;-74
2022/01/01 07:56:14;;;;;;;35.35;20.42;;;;;;;;;;5031618;28;20054;-74
2022/01/01 07:58:40;;;;;;;32.10;19.30;;;;;;;;;;5033888;28;20051;-74
2022/01/01 08:01:06;;;;;;;32.85;19.25;;;;;;;;;;5027677;28;20053;-74
2022/01/01 08:03:32;;;;;;;27.55;14.80;;;;;;;;;;5028887;28;20096;-74
2022/01/01 08:05:58;;;;;;;26.02;15.00;;;;;;;;;;5035401;28;20033;-74
2022/01/01 08:08:24;;;;;;;22.23;13.88;;;;;;;;;;5026650;28;20488;-75
2022/01/01 08:10:50;;;;;;;24.02;14.70;;;;;;;;;;5022918;28;20122;-74
2022/01/01 08:13:26;;;;;;;26.17;15.77;;;;;;;;;;5028404;28;20064;-74
2022/01/01 08:15:52;;;;;;;30.30;18.50;;;;;;;;;;5024132;28;20037;-75
2022/01/01 08:18:19;;;;;;;27.58;15.95;;;;;;;;;;5022930;28;20032;-75
2022/01/01 08:20:46;;;;;;;25.23;14.15;;;;;;;;;;5027680;28;20036;-74
2022/01/01 08:23:13;;;;;;;25.08;14.40;;;;;;;;;;5025259;28;20049;-75
2022/01/01 08:25:39;;;;;;;25.67;15.93;;;;;;;;;;5024524;28;20045;-74
2022/01/01 08:28:06;;;;;;;24.55;13.38;;;;;;;;;;5030312;28;20037;-75
2022/01/01 08:30:32;;;;;;;20.58;11.73;;;;;;;;;;5024403;28;20033;-74
2022/01/01 08:33:01;;;;;;;18.00;10.68;;;;;;;;;;5025084;28;20037;-75
2022/01/01 08:35:35;;;;;;;23.90;13.98;;;;;;;;;;5026534;28;20025;-75
2022/01/01 08:38:03;;;;;;;18.85;12.13;;;;;;;;;;5025843;28;20021;-74
2022/01/01 08:40:29;;;;;;;22.90;13.88;;;;;;;;;;5027684;28;20095;-75
2022/01/01 08:42:55;;;;;;;27.23;12.98;;;;;;;;;;5019671;28;20511;-75
2022/01/01 08:45:22;;;;;;;22.52;13.95;;;;;;;;;;5023767;28;20049;-75
2022/01/01 08:47:48;;;;;;;46.20;26.98;;;;;;;;;;5022543;28;20071;-75
2022/01/01 08:50:14;;;;;;;33.90;22.55;;;;;;;;;;5022719;28;20038;-75
2022/01/01 08:52:41;;;;;;;34.85;23.88;;;;;;;;;;5024827;28;20033;-74
2022/01/01 08:55:07;;;;;;;37.60;23.30;;;;;;;;;;5023797;28;20109;-75
2022/01/01 08:57:33;;;;;;;31.90;18.85;;;;;;;;;;5022086;28;20032;-74
2022/01/01 09:00:00;;;;;;;27.58;18.20;;;;;;;;;;5022287;28;20041;-74
2022/01/01 09:02:26;;;;;;;29.02;19.10;;;;;;;;;;5021893;28;20385;-74
2022/01/01 09:04:52;;;;;;;26.25;15.82;;;;;;;;;;5021552;28;20045;-74
2022/01/01 09:07:19;;;;;;;27.45;16.27;;;;;;;;;;5022923;28;20490;-75
2022/01/01 09:09:45;;;;;;;24.80;16.08;;;;;;;;;;5025080;28;20048;-75
2022/01/01 09:12:11;;;;;;;25.27;17.90;;;;;;;;;;5026802;28;20038;-75
2022/01/01 09:14:38;;;;;;;29.63;19.40;;;;;;;;;;5023389;28;20033;-75
2022/01/01 09:17:05;;;;;;;31.25;19.77;;;;;;;;;;5022694;28;20029;-75
2022/01/01 09:19:31;;;;;;;35.13;22.20;;;;;;;;;;5023968;28;20731;-75
2022/01/01 09:21:57;;;;;;;30.33;18.63;;;;;;;;;;5024499;28;20527;-75
2022/01/01 09:24:24;;;;;;;25.90;17.15;;;;;;;;;;5026843;28;20037;-75
2022/01/01 09:26:50;;;;;;;30.42;19.33;;;;;;;;;;5026898;28;20052;-76
2022/01/01 09:29:17;;;;;;;28.40;18.55;;;;;;;;;;5025095;28;20060;-76
2022/01/01 09:31:44;;;;;;;26.85;17.90;;;;;;;;;;5023835;28;20040;-75
2022/01/01 09:34:10;;;;;;;34.40;19.30;;;;;;;;;;5018926;28;20038;-75
2022/01/01 09:36:36;;;;;;;45.13;24.33;;;;;;;;;;5025637;28;20029;-75
2022/01/01 09:39:03;;;;;;;119.38;64.32;;;;;;;;;;5024473;28;20049;-75
2022/01/01 09:41:29;;;;;;;90.90;51.42;;;;;;;;;;5024625;28;20022;-76
2022/01/01 09:43:57;;;;;;;99.13;52.65;;;;;;;;;;5027196;28;20052;-76
2022/01/01 09:46:23;;;;;;;87.57;51.45;;;;;;;;;;5021088;28;20441;-76
2022/01/01 09:48:52;;;;;;;74.60;43.70;;;;;;;;;;5021649;28;20095;-76
2022/01/01 09:51:19;;;;;;;82.97;47.97;;;;;;;;;;5027728;28;20033;-75
2022/01/01 09:53:45;;;;;;;77.22;45.33;;;;;;;;;;5026610;28;20073;-75
2022/01/01 09:56:11;;;;;;;65.72;39.15;;;;;;;;;;5026684;28;20510;-75
2022/01/01 09:58:38;;;;;;;58.20;35.65;;;;;;;;;;5026551;28;20579;-75
2022/01/01 10:01:06;;;;;;;48.72;31.33;;;;;;;;;;5026913;28;20072;-76
2022/01/01 10:03:35;;;;;;;42.58;27.10;;;;;;;;;;5023137;28;20037;-76
2022/01/01 10:06:09;;;;;;;38.22;25.83;;;;;;;;;;5026861;28;20713;-76
2022/01/01 10:08:37;;;;;;;37.67;28.90;;;;;;;;;;5023223;28;20058;-75
2022/01/01 10:11:04;;;;;;;41.53;30.15;;;;;;;;;;5023840;28;20037;-75
2022/01/01 10:13:34;;;;;;;69.47;44.45;;;;;;;;;;5029455;28;20041;-75
2022/01/01 10:16:01;;;;;;;54.25;37.28;;;;;;;;;;5028877;28;20025;-75
2022/01/01 10:18:31;;;;;;;50.75;35.20;;;;;;;;;;5028869;28;20037;-75
2022/01/01 10:21:02;;;;;;;71.78;44.60;;;;;;;;;;5026897;28;20127;-75
2022/01/01 10:23:30;;;;;;;101.85;58.22;;;;;;;;;;5028708;28;20448;-75
2022/01/01 10:29:03;;;;;;;192.00;100.40;;;;;;;;;;5029617;28;20113;-76
2022/01/01 10:31:29;;;;;;;118.70;64.47;;;;;;;;;;5029722;28;20037;-75
2022/01/01 10:33:55;;;;;;;77.95;42.80;;;;;;;;;;5029701;28;20037;-76
2022/01/01 10:36:22;;;;;;;52.35;30.70;;;;;;;;;;5024621;28;20033;-75
2022/01/01 10:38:49;;;;;;;29.73;19.45;;;;;;;;;;5026090;28;20061;-75
2022/01/01 10:41:16;;;;;;;23.75;15.57;;;;;;;;;;5023810;28;20033;-75
2022/01/01 10:43:43;;;;;;;23.75;12.95;;;;;;;;;;5025148;28;20037;-75
2022/01/01 10:46:19;;;;;;;19.92;11.93;;;;;;;;;;5027102;28;20125;-75
2022/01/01 10:48:58;;;;;;;19.90;10.40;;;;;;;;;;5022644;28;20485;-75
2022/01/01 10:51:24;;;;;;;18.73;9.95;;;;;;;;;;5023349;28;20167;-75
2022/01/01 10:54:00;;;;;;;16.00;9.35;;;;;;;;;;5025847;28;20033;-76
2022/01/01 10:56:26;;;;;;;16.48;10.82;;;;;;;;;;5025398;28;20037;-76
2022/01/01 10:59:03;;;;;;;16.33;11.57;;;;;;;;;;5024789;28;20598;-76
2022/01/01 11:01:30;;;;;;;17.83;11.35;;;;;;;;;;5022223;28;20017;-76
2022/01/01 11:03:57;;;;;;;15.25;9.77;;;;;;;;;;5015439;28;20042;-76
2022/01/01 11:06:23;;;;;;;15.88;9.85;;;;;;;;;;5024037;28;20025;-76
2022/01/01 11:08:50;;;;;;;14.45;9.07;;;;;;;;;;5029601;28;20037;-76
2022/01/01 11:11:16;;;;;;;18.52;11.13;;;;;;;;;;5020563;28;20032;-75
2022/01/01 11:13:45;;;;;;;32.40;20.85;;;;;;;;;;5021947;28;20037;-76
2022/01/01 11:16:14;;;;;;;36.53;26.48;;;;;;;;;;5017166;28;20610;-76
2022/01/01 11:18:40;;;;;;;45.22;33.45;;;;;;;;;;5027746;28;20040;-76
2022/01/01 11:21:06;;;;;;;36.63;26.70;;;;;;;;;;5027703;28;20030;-76
2022/01/01 11:23:32;;;;;;;26.65;20.10;;;;;;;;;;5027989;28;20072;-76
2022/01/01 11:25:59;;;;;;;26.52;18.00;;;;;;;;;;5037377;28;20128;-76
2022/01/01 11:28:26;;;;;;;16.90;11.60;;;;;;;;;;5028281;28;20634;-76
2022/01/01 11:30:59;;;;;;;14.13;7.72;;;;;;;;;;5027168;28;20458;-76
2022/01/01 11:33:45;;;;;;;10.52;5.35;;;;;;;;;;5027792;28;20939;-76
2022/01/01 11:36:21;;;;;;;8.27;4.00;;;;;;;;;;5031363;28;20060;-76
2022/01/01 11:38:47;;;;;;;8.73;3.83;;;;;;;;;;5024585;28;20034;-75
2022/01/01 11:41:15;;;;;;;7.97;4.30;;;;;;;;;;5030633;28;20030;-76
2022/01/01 11:43:41;;;;;;;11.60;6.28;;;;;;;;;;5031616;28;20112;-75
2022/01/01 11:46:11;;;;;;;10.98;6.30;;;;;;;;;;5027990;28;20053;-75
2022/01/01 11:48:41;;;;;;;14.57;8.50;;;;;;;;;;5031611;28;20056;-76
2022/01/01 11:51:19;;;;;;;20.85;11.35;;;;;;;;;;5027774;28;20092;-76
2022/01/01 11:54:03;;;;;;;24.80;17.58;;;;;;;;;;5012206;28;20065;-76
2022/01/01 11:56:49;;;;;;;26.27;18.58;;;;;;;;;;5020481;28;20029;-75
2022/01/01 11:59:21;;;;;;;19.52;11.75;;;;;;;;;;5031078;28;20040;-75
2022/01/01 12:01:48;;;;;;;16.30;9.93;;;;;;;;;;5027987;28;20107;-76
2022/01/01 12:04:24;;;;;;;20.05;12.90;;;;;;;;;;5022790;28;20084;-76
2022/01/01 12:06:54;;;;;;;16.75;11.93;;;;;;;;;;5020915;28;20039;-76
2022/01/01 12:09:20;;;;;;;15.88;10.35;;;;;;;;;;5031270;28;20034;-76
2022/01/01 12:12:06;;;;;;;17.58;9.88;;;;;;;;;;5031140;28;20071;-76
2022/01/01 12:14:34;;;;;;;18.67;10.93;;;;;;;;;;5026090;28;20124;-76
2022/01/01 12:17:04;;;;;;;17.00;10.23;;;;;;;;;;5031177;28;20026;-75
2022/01/01 12:19:37;;;;;;;11.88;6.93;;;;;;;;;;5030112;28;20052;-76
2022/01/01 12:22:04;;;;;;;17.10;10.52;;;;;;;;;;5030255;28;20057;-76
2022/01/01 12:24:34;;;;;;;40.28;26.40;;;;;;;;;;5031275;28;20049;-76
2022/01/01 12:27:00;;;;;;;37.53;24.63;;;;;;;;;;5030672;28;20033;-74
2022/01/01 12:29:26;;;;;;;22.92;15.02;;;;;;;;;;5030679;28;20040;-74
2022/01/01 12:31:58;;;;;;;18.58;10.93;;;;;;;;;;5023772;28;20037;-77
2022/01/01 12:34:25;;;;;;;14.45;8.65;;;;;;;;;;5028912;28;20495;-76
2022/01/01 12:36:55;;;;;;;13.27;8.15;;;;;;;;;;5025173;28;20032;-77
2022/01/01 12:39:21;;;;;;;16.08;10.13;;;;;;;;;;5027984;28;20493;-76
2022/01/01 12:41:47;;;;;;;14.85;7.38;;;;;;;;;;5022528;28;20762;-76
2022/01/01 12:44:13;;;;;;;12.15;7.20;;;;;;;;;;5025522;28;20046;-74
2022/01/01 12:46:45;;;;;;;10.70;6.28;;;;;;;;;;5025221;28;20132;-76
2022/01/01 12:49:11;;;;;;;8.10;3.40;;;;;;;;;;5020101;28;20052;-76
2022/01/01 12:51:38;;;;;;;7.30;3.15;;;;;;;;;;5028142;28;20038;-76
2022/01/01 12:54:05;;;;;;;7.15;2.88;;;;;;;;;;5027561;28;20037;-76
2022/01/01 12:56:32;;;;;;;10.27;5.78;;;;;;;;;;5020919;28;20044;-75
2022/01/01 12:58:59;;;;;;;9.98;4.30;;;;;;;;;;5025944;28;20106;-76
2022/01/01 13:01:26;;;;;;;7.45;4.18;;;;;;;;;;5028550;28;20679;-76
2022/01/01 13:04:00;;;;;;;8.15;3.90;;;;;;;;;;5029423;28;20116;-76
2022/01/01 13:06:33;;;;;;;15.95;9.68;;;;;;;;;;5022686;28;20034;-76
2022/01/01 13:09:02;;;;;;;14.23;6.90;;;;;;;;;;5028357;28;20037;-76
2022/01/01 13:11:29;;;;;;;10.40;5.35;;;;;;;;;;5029063;28;20048;-76
2022/01/01 13:13:56;;;;;;;11.15;6.00;;;;;;;;;;5024798;28;20040;-75
2022/01/01 13:16:22;;;;;;;7.55;4.20;;;;;;;;;;5025515;28;20037;-76
2022/01/01 13:18:48;;;;;;;26.25;14.50;;;;;;;;;;5024538;28;20029;-75
2022/01/01 13:21:15;;;;;;;13.30;6.50;;;;;;;;;;5027964;28;20033;-76
2022/01/01 13:23:41;;;;;;;11.93;4.40;;;;;;;;;;5021431;28;20076;-76
2022/01/01 13:26:07;;;;;;;13.43;5.18;;;;;;;;;;5016109;28;20131;-75
2022/01/01 13:28:35;;;;;;;13.60;7.22;;;;;;;;;;5024077;28;20036;-76
2022/01/01 13:31:02;;;;;;;13.68;7.00;;;;;;;;;;5026924;28;20104;-75
2022/01/01 13:33:28;;;;;;;12.27;5.68;;;;;;;;;;5018855;28;20156;-75
2022/01/01 13:35:55;;;;;;;11.18;5.72;;;;;;;;;;5024148;28;20832;-75
2022/01/01 13:38:22;;;;;;;12.85;6.28;;;;;;;;;;5026537;28;20415;-75
2022/01/01 13:40:49;;;;;;;12.15;5.60;;;;;;;;;;5020765;28;20471;-75
2022/01/01 13:43:15;;;;;;;12.15;5.05;;;;;;;;;;5025254;28;20141;-75
2022/01/01 13:45:41;;;;;;;13.88;6.10;;;;;;;;;;5024866;28;20496;-75
2022/01/01 13:48:08;;;;;;;10.30;5.65;;;;;;;;;;5022904;28;20037;-75
2022/01/01 13:50:44;;;;;;;39.90;20.75;;;;;;;;;;5023986;28;20033;-76
2022/01/01 13:53:11;;;;;;;30.95;14.63;;;;;;;;;;5018661;28;20037;-76
2022/01/01 13:55:38;;;;;;;23.15;12.23;;;;;;;;;;5023613;28;20033;-76
2022/01/01 13:58:05;;;;;;;21.48;10.77;;;;;;;;;;5022308;28;20795;-76
2022/01/01 14:00:35;;;;;;;12.75;7.13;;;;;;;;;;5023493;28;20626;-76
2022/01/01 14:03:03;;;;;;;13.38;8.07;;;;;;;;;;5017443;28;20384;-76
2022/01/01 14:05:29;;;;;;;13.98;8.35;;;;;;;;;;5021773;28;20083;-76
2022/01/01 14:08:25;;;;;;;27.05;18.48;;;;;;;;;;5026113;28;20117;-76
2022/01/01 14:10:54;;;;;;;33.90;23.88;;;;;;;;;;5009224;28;20037;-76
2022/01/01 14:13:30;;;;;;;40.72;28.23;;;;;;;;;;5022732;28;20384;-76
2022/01/01 14:15:57;;;;;;;31.95;23.10;;;;;;;;;;5022955;28;20025;-76
2022/01/01 14:18:27;;;;;;;32.30;22.85;;;;;;;;;;5022728;28;20140;-76
2022/01/01 14:20:54;;;;;;;25.83;18.80;;;;;;;;;;5016738;28;20049;-76
2022/01/01 14:23:24;;;;;;;22.48;14.18;;;;;;;;;;5018491;28;20061;-75
2022/01/01 14:25:56;;;;;;;21.17;14.52;;;;;;;;;;5017204;28;20049;-75